createdAt,value
2018-11-28T00:00:00.654Z,29.10
2018-11-28T00:02:35.146Z,29.10
2018-11-28T00:05:11.638Z,29.00
2018-11-28T00:07:46.029Z,29.00
2018-11-28T00:10:20.410Z,28.90
2018-11-28T00:12:56.125Z,28.60
2018-11-28T00:15:30.639Z,28.90
2018-11-28T00:18:05.092Z,28.90
2018-11-28T00:20:39.620Z,28.90
2018-11-28T00:23:14.094Z,28.80
2018-11-28T00:25:48.490Z,28.70
2018-11-28T00:28:23.003Z,28.70
2018-11-28T00:30:57.442Z,28.60
2018-11-28T00:33:32.094Z,28.60
2018-11-28T00:36:09.521Z,28.50
2018-11-28T00:38:44.147Z,28.20
2018-11-28T00:41:18.700Z,28.20
2018-11-28T00:43:53.113Z,28.20
2018-11-28T00:46:28.703Z,28.30
2018-11-28T00:49:03.049Z,28.20
2018-11-28T00:51:37.478Z,28.30
2018-11-28T00:54:12.250Z,28.10
2018-11-28T00:56:46.651Z,28.20
2018-11-28T00:59:20.957Z,28.20
2018-11-28T01:01:55.845Z,28.20
2018-11-28T01:04:30.403Z,28.10
2018-11-28T01:07:05.685Z,28.00
2018-11-28T01:09:40.063Z,28.00
2018-11-28T01:12:14.439Z,27.90
2018-11-28T01:14:48.859Z,27.90
2018-11-28T01:17:23.032Z,27.80
2018-11-28T01:19:57.501Z,27.70
2018-11-28T01:22:32.000Z,27.80
2018-11-28T01:25:09.080Z,27.70
2018-11-28T01:27:44.190Z,27.70
2018-11-28T01:30:24.524Z,27.50
2018-11-28T01:32:58.789Z,27.30
2018-11-28T01:35:33.126Z,27.20
2018-11-28T01:38:07.596Z,27.30
2018-11-28T01:40:42.421Z,27.30
2018-11-28T01:43:17.032Z,27.10
2018-11-28T01:45:51.623Z,27.00
2018-11-28T01:48:26.147Z,27.00
2018-11-28T01:51:00.759Z,27.10
2018-11-28T01:53:35.673Z,27.10
2018-11-28T01:56:10.691Z,27.10
2018-11-28T01:58:45.013Z,27.20
2018-11-28T02:01:19.714Z,27.10
2018-11-28T02:03:54.702Z,27.20
2018-11-28T02:06:29.412Z,27.10
2018-11-28T02:09:05.987Z,27.00
2018-11-28T02:11:40.430Z,26.90
2018-11-28T02:14:14.842Z,27.00
2018-11-28T02:16:49.204Z,27.00
2018-11-28T02:19:23.689Z,26.90
2018-11-28T02:21:58.313Z,27.00
2018-11-28T02:24:32.911Z,26.90
2018-11-28T02:27:07.503Z,26.80
2018-11-28T02:29:42.103Z,26.70
2018-11-28T02:32:16.485Z,26.80
2018-11-28T02:34:50.913Z,26.70
2018-11-28T02:37:25.272Z,26.50
2018-11-28T02:40:01.199Z,26.50
2018-11-28T02:42:35.876Z,26.80
2018-11-28T02:45:15.399Z,27.10
2018-11-28T02:47:50.500Z,26.90
2018-11-28T02:50:24.873Z,26.90
2018-11-28T02:52:59.480Z,26.70
2018-11-28T02:55:34.168Z,26.40
2018-11-28T02:58:08.655Z,26.20
2018-11-28T03:00:44.099Z,26.10
2018-11-28T03:03:18.432Z,26.30
2018-11-28T03:05:52.731Z,26.20
2018-11-28T03:08:27.020Z,26.00
2018-11-28T03:11:01.260Z,25.90
2018-11-28T03:13:35.618Z,25.90
2018-11-28T03:16:24.539Z,25.90
2018-11-28T03:18:59.006Z,25.90
2018-11-28T03:21:33.221Z,25.70
2018-11-28T03:24:07.507Z,25.70
2018-11-28T03:26:42.157Z,25.60
2018-11-28T03:29:16.478Z,25.30
2018-11-28T03:31:51.900Z,25.20
2018-11-28T03:34:26.261Z,25.10
2018-11-28T03:37:00.761Z,24.80
2018-11-28T03:39:35.347Z,24.40
2018-11-28T03:42:09.784Z,24.40
2018-11-28T03:44:44.094Z,24.40
2018-11-28T03:47:19.297Z,24.40
2018-11-28T03:49:54.394Z,24.40
2018-11-28T03:52:28.793Z,24.50
2018-11-28T03:55:03.162Z,24.40
2018-11-28T03:57:37.546Z,24.00
2018-11-28T04:00:15.343Z,23.50
2018-11-28T04:02:50.214Z,23.50
2018-11-28T04:05:24.687Z,23.20
2018-11-28T04:07:59.025Z,23.00
2018-11-28T04:10:33.294Z,22.80
2018-11-28T04:13:08.178Z,22.60
2018-11-28T04:15:42.811Z,22.50
2018-11-28T04:18:17.220Z,22.70
2018-11-28T04:20:51.502Z,22.70
2018-11-28T04:23:26.105Z,22.70
2018-11-28T04:26:00.734Z,22.60
2018-11-28T04:28:35.685Z,22.70
2018-11-28T04:31:09.973Z,22.60
2018-11-28T04:33:44.283Z,22.60
2018-11-28T04:36:18.672Z,22.60
2018-11-28T04:38:53.592Z,22.60
2018-11-28T04:41:28.029Z,22.70
2018-11-28T04:44:02.378Z,22.90
2018-11-28T04:46:36.680Z,22.80
2018-11-28T04:49:12.293Z,22.80
2018-11-28T04:51:46.689Z,22.90
2018-11-28T04:54:21.031Z,22.90
2018-11-28T04:56:57.058Z,23.20
2018-11-28T04:59:31.255Z,22.90
2018-11-28T05:02:06.576Z,22.80
2018-11-28T05:04:40.998Z,22.70
2018-11-28T05:07:26.694Z,22.40
2018-11-28T05:10:01.052Z,22.40
2018-11-28T05:12:35.282Z,22.60
2018-11-28T05:15:18.611Z,22.50
2018-11-28T05:17:53.705Z,22.50
2018-11-28T05:20:30.623Z,22.60
2018-11-28T05:23:06.122Z,22.60
2018-11-28T05:25:40.409Z,22.60
2018-11-28T05:28:15.887Z,22.60
2018-11-28T05:30:50.422Z,22.60
2018-11-28T05:33:24.820Z,22.60
2018-11-28T05:35:59.308Z,22.90
2018-11-28T05:38:33.651Z,22.70
2018-11-28T05:41:08.390Z,22.70
2018-11-28T05:43:42.810Z,22.90
2018-11-28T05:46:17.232Z,23.10
2018-11-28T05:48:51.796Z,23.40
2018-11-28T05:51:26.161Z,23.40
2018-11-28T05:54:00.533Z,23.20
2018-11-28T05:56:35.041Z,23.20
2018-11-28T05:59:09.600Z,23.30
2018-11-28T06:01:44.026Z,23.40
2018-11-28T06:04:18.372Z,23.60
2018-11-28T06:06:52.881Z,23.50
2018-11-28T06:09:27.315Z,23.50
2018-11-28T06:12:01.564Z,23.50
2018-11-28T06:14:37.939Z,23.60
2018-11-28T06:17:12.458Z,23.50
2018-11-28T06:19:46.939Z,23.50
2018-11-28T06:22:22.131Z,23.60
2018-11-28T06:24:56.568Z,23.50
2018-11-28T06:27:32.528Z,23.20
2018-11-28T06:30:09.303Z,23.10
2018-11-28T06:32:44.008Z,22.70
2018-11-28T06:35:18.544Z,22.40
2018-11-28T06:37:52.911Z,22.10
2018-11-28T06:40:27.503Z,21.90
2018-11-28T06:43:02.179Z,21.90
2018-11-28T06:45:36.768Z,21.90
2018-11-28T06:48:11.106Z,22.50
2018-11-28T06:50:45.464Z,21.90
2018-11-28T06:53:25.214Z,21.40
2018-11-28T06:56:01.018Z,21.50
2018-11-28T06:58:37.864Z,21.10
2018-11-28T07:01:12.346Z,21.00
2018-11-28T07:03:46.871Z,20.80
2018-11-28T07:06:22.267Z,20.70
2018-11-28T07:08:58.043Z,20.40
2018-11-28T07:11:32.511Z,20.50
2018-11-28T07:14:08.863Z,20.20
2018-11-28T07:16:44.573Z,20.30
2018-11-28T07:19:21.291Z,20.30
2018-11-28T07:21:56.688Z,20.00
2018-11-28T07:24:31.419Z,19.90
2018-11-28T07:27:06.700Z,19.40
2018-11-28T07:29:41.750Z,19.10
2018-11-28T07:32:17.917Z,18.70
2018-11-28T07:34:52.950Z,18.50
2018-11-28T07:37:27.516Z,18.30
2018-11-28T07:40:02.206Z,17.70
2018-11-28T07:42:36.667Z,17.70
2018-11-28T07:45:12.062Z,16.80
2018-11-28T07:47:46.782Z,16.90
2018-11-28T07:50:22.628Z,16.80
2018-11-28T07:52:58.608Z,16.70
2018-11-28T07:55:33.275Z,16.60
2018-11-28T07:58:08.096Z,16.30
2018-11-28T08:00:42.583Z,15.90
2018-11-28T08:03:17.778Z,15.60
2018-11-28T08:05:55.366Z,15.20
2018-11-28T08:08:36.844Z,14.60
2018-11-28T08:11:22.064Z,14.40
2018-11-28T08:14:01.664Z,14.30
2018-11-28T08:16:39.455Z,14.00
2018-11-28T08:19:24.070Z,13.70
2018-11-28T08:22:03.794Z,13.00
2018-11-28T08:24:41.823Z,12.50
2018-11-28T08:27:21.631Z,11.90
2018-11-28T08:32:45.619Z,11.00
2018-11-28T08:35:24.105Z,10.10
2018-11-28T08:38:00.919Z,9.70
2018-11-28T08:40:36.703Z,9.80
2018-11-28T08:43:14.058Z,9.60
2018-11-28T08:45:50.445Z,9.60
2018-11-28T08:48:26.526Z,8.80
2018-11-28T08:51:04.115Z,7.80
2018-11-28T08:53:40.660Z,7.70
2018-11-28T08:56:22.051Z,7.70
2018-11-28T08:58:57.959Z,7.40
2018-11-28T09:01:32.365Z,7.80
2018-11-28T09:04:08.064Z,7.00
2018-11-28T09:06:45.319Z,6.30
2018-11-28T09:09:21.085Z,5.40
2018-11-28T09:11:55.501Z,5.40
2018-11-28T09:14:31.613Z,4.60
2018-11-28T09:17:06.991Z,5.70
2018-11-28T09:19:42.325Z,5.50
2018-11-28T09:22:18.257Z,4.40
2018-11-28T09:24:54.640Z,4.70
2018-11-28T09:27:35.763Z,6.00
2018-11-28T09:30:17.134Z,4.70
2018-11-28T09:32:51.782Z,1.80
2018-11-28T09:35:30.214Z,2.80
2018-11-28T09:38:06.253Z,2.60
2018-11-28T09:40:42.107Z,1.00
2018-11-28T09:43:17.608Z,1.50
2018-11-28T09:45:54.888Z,1.00
2018-11-28T09:48:30.507Z,1.00
2018-11-28T09:51:07.174Z,1.00
2018-11-28T09:53:42.186Z,1.00
2018-11-28T09:56:17.955Z,1.00
2018-11-28T09:58:53.493Z,1.00
2018-11-28T10:01:29.497Z,1.00
2018-11-28T10:04:04.497Z,1.00
2018-11-28T10:06:42.353Z,1.00
2018-11-28T10:12:20.547Z,1.00
2018-11-28T10:15:01.367Z,1.00
2018-11-28T10:17:45.597Z,1.00
2018-11-28T10:20:21.699Z,1.00
2018-11-28T10:22:59.464Z,1.00
2018-11-28T10:25:37.811Z,1.00
2018-11-28T10:31:14.228Z,1.00
2018-11-28T10:33:56.015Z,1.00
2018-11-28T10:36:39.402Z,1.00
2018-11-28T10:39:18.748Z,1.00
2018-11-28T10:42:13.170Z,1.00
2018-11-28T10:44:59.027Z,1.00
2018-11-28T10:47:41.525Z,1.00
2018-11-28T10:50:21.459Z,1.00
2018-11-28T10:53:31.664Z,1.00
2018-11-28T10:56:07.626Z,1.00
2018-11-28T10:58:44.640Z,1.00
2018-11-28T11:01:24.468Z,1.00
2018-11-28T11:04:05.071Z,1.00
2018-11-28T11:06:46.417Z,1.00
2018-11-28T11:09:26.319Z,1.00
2018-11-28T11:12:07.438Z,1.00
2018-11-28T11:14:46.210Z,1.00
2018-11-28T11:17:24.372Z,1.00
2018-11-28T11:20:00.295Z,1.00
2018-11-28T11:22:35.628Z,1.00
2018-11-28T11:25:11.536Z,1.00
2018-11-28T11:27:46.729Z,1.00
2018-11-28T11:30:24.904Z,1.00
2018-11-28T11:35:40.969Z,1.00
2018-11-28T11:43:49.077Z,1.00
2018-11-28T11:46:27.957Z,1.00
2018-11-28T11:49:11.731Z,1.00
2018-11-28T11:54:33.226Z,1.00
2018-11-28T11:57:15.078Z,1.00
2018-11-28T11:59:53.314Z,1.00
2018-11-28T12:02:31.385Z,1.00
2018-11-28T12:05:10.243Z,1.00
2018-11-28T12:07:46.163Z,1.00
2018-11-28T12:10:22.963Z,1.00
2018-11-28T12:13:07.296Z,1.00
2018-11-28T12:15:45.691Z,1.00
2018-11-28T12:18:23.274Z,1.00
2018-11-28T12:21:08.245Z,1.00
2018-11-28T12:23:53.517Z,1.00
2018-11-28T12:29:24.407Z,1.00
2018-11-28T12:34:52.085Z,1.00
2018-11-28T12:37:28.245Z,1.00
2018-11-28T12:40:10.110Z,1.00
2018-11-28T12:42:51.537Z,1.00
2018-11-28T12:45:31.864Z,1.00
2018-11-28T12:48:08.643Z,1.00
2018-11-28T12:50:50.004Z,1.00
2018-11-28T12:53:32.178Z,1.00
2018-11-28T12:56:15.803Z,1.00
2018-11-28T12:58:55.635Z,1.00
2018-11-28T13:01:32.979Z,1.00
2018-11-28T13:04:14.109Z,1.00
2018-11-28T13:06:51.175Z,1.00
2018-11-28T13:09:29.944Z,1.00
2018-11-28T13:12:09.248Z,1.00
2018-11-28T13:14:49.632Z,1.00
2018-11-28T13:17:32.499Z,1.00
2018-11-28T13:20:09.943Z,1.00
2018-11-28T13:22:51.432Z,1.00
2018-11-28T13:25:31.993Z,1.00
2018-11-28T13:28:13.930Z,1.00
2018-11-28T13:33:33.847Z,1.00
2018-11-28T13:36:09.594Z,1.00
2018-11-28T13:38:50.295Z,1.00
2018-11-28T13:44:08.207Z,1.00
2018-11-28T13:46:48.161Z,1.00
2018-11-28T13:49:22.833Z,1.00
2018-11-28T13:51:58.039Z,1.00
2018-11-28T13:55:36.455Z,1.00
2018-11-28T13:57:14.157Z,1.00
2018-11-28T13:59:49.347Z,1.00
2018-11-28T14:02:24.326Z,1.00
2018-11-28T14:04:58.670Z,1.00
2018-11-28T14:07:33.159Z,1.00
2018-11-28T14:10:11.786Z,1.00
2018-11-28T14:12:46.183Z,1.00
2018-11-28T14:15:21.700Z,1.00
2018-11-28T14:18:01.809Z,1.00
2018-11-28T14:20:36.187Z,1.00
2018-11-28T14:23:10.715Z,1.00
2018-11-28T14:25:45.277Z,1.00
2018-11-28T14:28:19.839Z,1.00
2018-11-28T14:30:54.390Z,1.00
2018-11-28T14:33:28.775Z,1.00
2018-11-28T14:36:03.708Z,1.00
2018-11-28T14:38:39.223Z,1.00
2018-11-28T14:41:13.668Z,1.00
2018-11-28T14:43:48.023Z,1.00
2018-11-28T14:46:22.554Z,1.00
2018-11-28T14:48:57.530Z,1.00
2018-11-28T14:51:32.216Z,1.40
2018-11-28T14:54:06.798Z,1.50
2018-11-28T14:56:41.307Z,2.20
2018-11-28T14:59:15.702Z,2.90
2018-11-28T15:01:52.335Z,3.00
2018-11-28T15:04:26.911Z,4.10
2018-11-28T15:07:02.124Z,5.20
2018-11-28T15:09:42.150Z,5.90
2018-11-28T15:12:16.834Z,5.90
2018-11-28T15:14:51.448Z,6.90
2018-11-28T15:17:26.131Z,7.30
2018-11-28T15:20:00.396Z,8.20
2018-11-28T15:22:34.817Z,8.50
2018-11-28T15:25:10.302Z,9.40
2018-11-28T15:27:44.787Z,10.00
2018-11-28T15:30:19.055Z,10.70
2018-11-28T15:32:53.496Z,11.20
2018-11-28T15:35:28.098Z,11.30
2018-11-28T15:38:02.466Z,11.60
2018-11-28T15:40:37.048Z,12.40
2018-11-28T15:43:11.415Z,12.60
2018-11-28T15:45:46.129Z,13.20
2018-11-28T15:48:21.223Z,13.20
2018-11-28T15:50:55.559Z,13.20
2018-11-28T15:53:30.388Z,13.70
2018-11-28T15:56:05.506Z,13.90
2018-11-28T15:58:45.010Z,14.30
2018-11-28T16:01:19.520Z,14.70
2018-11-28T16:03:53.971Z,15.20
2018-11-28T16:06:28.863Z,15.40
2018-11-28T16:09:03.995Z,15.40
2018-11-28T16:11:38.624Z,15.30
2018-11-28T16:14:12.975Z,15.20
2018-11-28T16:16:47.595Z,15.20
2018-11-28T16:19:27.004Z,15.30
2018-11-28T16:22:01.356Z,15.20
2018-11-28T16:24:42.593Z,15.20
2018-11-28T16:27:18.387Z,14.30
2018-11-28T16:29:55.915Z,14.70
2018-11-28T16:32:32.228Z,14.70
2018-11-28T16:35:08.449Z,14.20
2018-11-28T16:37:42.941Z,14.10
2018-11-28T16:40:17.301Z,14.00
2018-11-28T16:42:51.776Z,13.90
2018-11-28T16:45:26.314Z,13.90
2018-11-28T16:48:00.757Z,13.90
2018-11-28T16:50:35.366Z,13.60
2018-11-28T16:53:10.175Z,14.10
2018-11-28T16:55:45.914Z,14.00
2018-11-28T16:58:21.169Z,13.90
2018-11-28T17:00:55.651Z,13.50
2018-11-28T17:03:30.264Z,13.40
2018-11-28T17:06:05.789Z,13.40
2018-11-28T17:08:41.029Z,13.40
2018-11-28T17:11:16.259Z,13.40
2018-11-28T17:13:50.996Z,13.30
2018-11-28T17:19:20.393Z,13.40
2018-11-28T17:21:58.413Z,13.40
2018-11-28T17:24:34.739Z,13.40
2018-11-28T17:27:10.415Z,13.40
2018-11-28T17:29:45.944Z,13.00
2018-11-28T17:32:21.995Z,13.50
2018-11-28T17:34:56.527Z,12.50
2018-11-28T17:37:31.470Z,12.30
2018-11-28T17:40:11.508Z,11.80
2018-11-28T17:42:47.817Z,11.80
2018-11-28T17:45:22.895Z,11.70
2018-11-28T17:47:57.644Z,11.50
2018-11-28T17:50:32.195Z,11.20
2018-11-28T17:53:18.381Z,10.90
2018-11-28T17:55:54.251Z,10.20
2018-11-28T17:58:29.860Z,9.70
2018-11-28T18:01:04.323Z,10.10
2018-11-28T18:03:45.437Z,10.60
2018-11-28T18:06:19.907Z,10.30
2018-11-28T18:08:54.495Z,10.10
2018-11-28T18:11:29.075Z,9.60
2018-11-28T18:14:04.355Z,9.60
2018-11-28T18:16:39.982Z,9.70
2018-11-28T18:19:14.644Z,9.60
2018-11-28T18:21:49.141Z,9.80
2018-11-28T18:24:25.649Z,9.60
2018-11-28T18:27:00.498Z,9.60
2018-11-28T18:29:36.676Z,10.30
2018-11-28T18:32:12.548Z,9.80
2018-11-28T18:34:47.324Z,10.00
2018-11-28T18:37:24.299Z,10.30
2018-11-28T18:39:56.877Z,10.50
2018-11-28T18:42:32.093Z,10.50
2018-11-28T18:45:13.853Z,11.30
2018-11-28T18:47:49.413Z,11.20
2018-11-28T18:50:24.387Z,11.50
2018-11-28T18:52:59.510Z,11.40
2018-11-28T18:55:34.751Z,11.20
2018-11-28T18:58:10.287Z,11.10
2018-11-28T19:00:44.760Z,11.10
2018-11-28T19:03:19.167Z,10.80
2018-11-28T19:05:53.548Z,10.90
2018-11-28T19:08:28.108Z,10.80
2018-11-28T19:11:05.201Z,10.10
2018-11-28T19:13:40.685Z,9.90
2018-11-28T19:16:14.759Z,9.80
2018-11-28T19:18:49.099Z,9.20
2018-11-28T19:21:23.341Z,9.40
2018-11-28T19:23:57.711Z,8.70
2018-11-28T19:26:31.890Z,8.60
2018-11-28T19:29:07.540Z,8.10
2018-11-28T19:31:41.811Z,7.60
2018-11-28T19:34:18.325Z,7.70
2018-11-28T19:36:51.897Z,7.80
2018-11-28T19:39:26.544Z,6.90
2018-11-28T19:42:01.727Z,6.70
2018-11-28T19:44:37.616Z,6.50
2018-11-28T19:47:12.160Z,6.60
2018-11-28T19:49:46.568Z,6.60
2018-11-28T19:52:22.016Z,5.30
2018-11-28T19:54:56.179Z,5.10
2018-11-28T19:57:30.422Z,4.10
2018-11-28T20:00:09.527Z,3.20
2018-11-28T20:02:44.631Z,2.90
2018-11-28T20:05:19.812Z,2.90
2018-11-28T20:07:54.033Z,2.90
2018-11-28T20:10:28.312Z,2.90
2018-11-28T20:13:02.631Z,2.60
2018-11-28T20:15:37.787Z,2.90
2018-11-28T20:18:12.176Z,3.00
2018-11-28T20:20:46.976Z,3.00
2018-11-28T20:23:21.916Z,2.40
2018-11-28T20:25:56.336Z,2.10
2018-11-28T20:28:30.571Z,1.70
2018-11-28T20:31:05.378Z,1.00
2018-11-28T20:33:39.661Z,1.00
2018-11-28T20:36:13.944Z,1.00
2018-11-28T20:38:48.384Z,1.00
2018-11-28T20:41:24.317Z,1.00
2018-11-28T20:43:59.533Z,1.00
2018-11-28T20:46:33.728Z,1.00
2018-11-28T20:49:11.059Z,1.00
2018-11-28T20:51:46.216Z,1.00
2018-11-28T20:54:20.595Z,1.00
2018-11-28T20:56:55.087Z,1.00
2018-11-28T20:59:29.507Z,1.00
2018-11-28T21:02:04.211Z,1.00
2018-11-28T21:04:38.530Z,1.00
2018-11-28T21:07:12.792Z,1.00
2018-11-28T21:09:52.424Z,1.00
2018-11-28T21:12:28.160Z,1.00
2018-11-28T21:15:02.753Z,1.00
2018-11-28T21:17:37.046Z,1.00
2018-11-28T21:20:15.795Z,1.00
2018-11-28T21:22:52.672Z,1.00
2018-11-28T21:25:27.759Z,1.00
2018-11-28T21:28:02.187Z,1.00
2018-11-28T21:30:37.437Z,1.00
2018-11-28T21:33:13.233Z,1.00
2018-11-28T21:35:50.336Z,1.00
2018-11-28T21:38:25.180Z,1.00
2018-11-28T21:41:01.702Z,1.00
2018-11-28T21:43:36.866Z,1.00
2018-11-28T21:46:11.401Z,1.00
2018-11-28T21:48:45.739Z,1.00
2018-11-28T21:51:20.634Z,1.00
2018-11-28T21:53:55.112Z,1.00
2018-11-28T21:56:29.502Z,1.00
2018-11-28T21:59:05.950Z,1.00
2018-11-28T22:01:41.228Z,1.00
2018-11-28T22:04:16.272Z,1.00
2018-11-28T22:06:50.536Z,1.00
2018-11-28T22:09:25.027Z,1.00
2018-11-28T22:11:59.947Z,1.00
2018-11-28T22:14:36.254Z,1.00
2018-11-28T22:17:11.958Z,1.00
2018-11-28T22:19:46.402Z,1.00
2018-11-28T22:22:20.890Z,1.00
2018-11-28T22:24:55.326Z,1.00
2018-11-28T22:27:30.774Z,1.40
2018-11-28T22:30:06.906Z,3.60
2018-11-28T22:32:41.255Z,4.90
2018-11-28T22:35:15.612Z,3.70
2018-11-28T22:37:50.382Z,6.20
2018-11-28T22:40:28.912Z,7.30
2018-11-28T22:43:03.258Z,7.30
2018-11-28T22:45:37.654Z,7.90
2018-11-28T22:48:12.034Z,6.90
2018-11-28T22:50:46.612Z,8.40
2018-11-28T22:53:22.043Z,12.00
2018-11-28T22:55:56.419Z,12.40
2018-11-28T22:58:31.049Z,14.60
2018-11-28T23:01:10.326Z,16.20
2018-11-28T23:03:44.588Z,17.60
2018-11-28T23:06:19.744Z,17.50
2018-11-28T23:08:54.348Z,17.60
2018-11-28T23:11:28.792Z,19.30
2018-11-28T23:14:03.050Z,19.70
2018-11-28T23:16:37.387Z,20.50
2018-11-28T23:19:11.831Z,19.10
2018-11-28T23:21:50.101Z,20.00
2018-11-28T23:24:20.666Z,18.20
2018-11-28T23:26:54.983Z,16.60
2018-11-28T23:29:29.432Z,16.20
2018-11-28T23:32:04.102Z,16.00
2018-11-28T23:34:39.306Z,13.50
2018-11-28T23:37:13.678Z,13.40
2018-11-28T23:39:48.645Z,10.30
2018-11-28T23:42:22.976Z,11.20
2018-11-28T23:44:57.423Z,11.10
2018-11-28T23:47:32.944Z,8.90
2018-11-28T23:50:09.947Z,8.80
2018-11-28T23:52:44.353Z,8.30
2018-11-28T23:55:24.375Z,9.10
2018-11-28T23:57:58.988Z,7.30
